Estación Meteorológica Peña el Pijo (Robertgarden) [ 11/19/19 10:37:09 CET ]

Fecha Hora Presion(HPa) Temp (°C) Humedad % Rocio (°C) Viento ( m/s) Direccion Lluvia 1Hora(mm) Lluvia 24H(mm) LLuvia Total(mm)
2019-Mar-15 01:01:44 1017.100 5.8 50 -3.8         184.40
2019-Mar-15 02:03:57 1017.100 4.9 52 -4.2         184.40
2019-Mar-15 03:04:09 1017.000 4.1 54 -4.4         184.40
2019-Mar-15 04:01:51 1016.500 3.1 57 -4.6         184.40
2019-Mar-15 05:01:51 1016.200 2.9 58 -4.6         184.40
2019-Mar-15 06:01:51 1016.200 2.7 59 -4.5         184.40
2019-Mar-15 07:01:58 1016.300 2.6 60 -4.4         184.40
2019-Mar-15 08:01:47 1016.400 2.6 59 -4.6         184.40
2019-Mar-15 09:01:34 1016.400 7.5 50 -2.2         184.40
2019-Mar-15 10:01:39 1016.100 14.6 31 -2.4         184.40
2019-Mar-15 11:01:37 1016.000 20.4 23 -1.6         184.40
2019-Mar-15 12:01:49 1015.500 22.6 21 -0.9         184.40
2019-Mar-15 13:01:43 1015.200 21.9 21 -1.5         184.40
2019-Mar-15 14:01:36 1014.700 23.1 21 -0.5         184.40
2019-Mar-15 15:01:42 1014.200 23.4 19 -1.7         184.40
2019-Mar-15 16:01:44 1013.800 23.8 20 -0.5 3.2 NE     184.40
2019-Mar-15 17:01:31 1013.700 23.2 19 -1.9         184.40
2019-Mar-15 18:01:53 1013.800 21.4 21 -1.9         184.40
2019-Mar-15 19:01:39 1014.100 18.0 25 -2.6         184.40
2019-Mar-15 20:01:44 1014.800 13.4 32 -3.1         184.40
2019-Mar-15 21:01:53 1015.400 9.8 40 -3.2         184.40
2019-Mar-15 22:01:48 1016.000 8.5 44 -3.1         184.40
2019-Mar-15 23:01:43 1016.300 7.1 48 -3.2         184.40

Temperatura Máxima:23°    Temperatura Mínima:
Presión Máxima:1017.100 Hpa    Presión Mínima:1013.700 Hpa


Volver